Millerton, Louisiana
Current Conditions -  °F | °C
As of 1:15 PM on Friday 24 Oct 2014 (Local Time) from KMNE Reporting Station
Clear Clear  
Wind Chill: 72°   Ceiling: Unl
Heat Index: 72°   Visibility: 10mi
Dew Point: 52°   Wind: 3mph
Humidity: 50%   Direction: 330°NNW
Pressure: 30.15"   Gusts: NA
Location:  32.9128°N, 93.0286°W
Report Text: KMNE 241815Z AUTO 33003KT 10SM CLR 22/11 A3015 RMK AO2
Loading
Personal Weather Stations






























Interactive Weather Map
Tropical Storm Tracking
New forecast layout! Learn more

10-Day Weather Forecast

Advertisements
Track Severe Weather on mobile